Terminal Aerodrome Forecast
Issued by NWS

Home | Current Version | Previous Version | Text Only | Print | Product List | Glossary On
Versions: 1 2 3 4 5 6 7 8 9 10 11 12 13 14 15 16 17
000
FTUS41 KRNK 281308 AAA
TAFBCB
TAF AMD
KBCB 281308Z 2813/2912 00000KT 1/4SM FG VV003
     FM281400 00000KT 2SM BR BKN003
     FM281500 VRB03KT P6SM FEW015
     FM281600 VRB03KT P6SM SKC
     FM282000 16005KT P6SM FEW045 SCT250
     FM290300 00000KT P6SM SCT250=

USA.gov is the U.S. government's official web portal to all federal, state and local government web resources and services.